createdAt,value
2022-09-21T06:14:45.567Z,1018.78
2022-09-21T06:24:45.618Z,1018.93
2022-09-21T06:34:45.429Z,1018.79
2022-09-21T06:44:45.545Z,1019.00
2022-09-21T06:54:45.597Z,1018.94
2022-09-21T07:04:45.525Z,1019.03
2022-09-21T07:14:45.567Z,1019.02
2022-09-21T07:24:45.499Z,1019.12
2022-09-21T07:34:45.787Z,1019.41
2022-09-21T07:44:45.588Z,1019.44
2022-09-21T07:54:45.773Z,1019.72
2022-09-21T08:04:45.529Z,1019.89
2022-09-21T08:14:45.700Z,1020.04
2022-09-21T08:24:45.610Z,1020.24
2022-09-21T08:34:45.778Z,1020.28
2022-09-21T08:44:45.859Z,1020.24
2022-09-21T08:54:46.039Z,1020.25
2022-09-21T09:04:46.129Z,1020.24
2022-09-21T09:14:46.069Z,1020.27
2022-09-21T09:24:45.958Z,1020.22
2022-09-21T09:34:46.120Z,1020.24
2022-09-21T09:44:46.029Z,1020.15
2022-09-21T09:54:46.024Z,1020.09
2022-09-21T10:04:46.204Z,1020.11
2022-09-21T10:14:46.040Z,1020.07
2022-09-21T10:24:46.001Z,1020.01
2022-09-21T10:34:46.298Z,1019.96
2022-09-21T10:44:46.017Z,1019.88
2022-09-21T10:54:46.128Z,1019.90
2022-09-21T11:04:46.200Z,1019.71
2022-09-21T11:14:46.298Z,1019.82
2022-09-21T11:24:46.319Z,1019.69
2022-09-21T11:34:46.127Z,1019.56
2022-09-21T11:44:46.237Z,1019.63
2022-09-21T11:54:46.155Z,1019.60
2022-09-21T12:04:46.290Z,1019.40
2022-09-21T12:14:46.240Z,1019.49
2022-09-21T12:24:46.163Z,1019.38
2022-09-21T12:34:46.216Z,1019.20
2022-09-21T12:44:46.112Z,1019.17
2022-09-21T12:54:46.343Z,1019.11
2022-09-21T13:04:46.362Z,1018.96
2022-09-21T13:14:46.183Z,1018.90
2022-09-21T13:24:46.158Z,1018.91
2022-09-21T13:34:46.157Z,1019.00
2022-09-21T13:44:46.230Z,1018.78
2022-09-21T13:54:46.200Z,1018.70
2022-09-21T14:04:46.149Z,1018.67
2022-09-21T14:14:46.389Z,1018.68
2022-09-21T14:24:46.257Z,1018.60
2022-09-21T14:34:46.338Z,1018.49
2022-09-21T14:44:46.533Z,1018.45
2022-09-21T14:54:46.451Z,1018.25
2022-09-21T15:04:46.605Z,1018.32
2022-09-21T15:14:46.528Z,1018.26
2022-09-21T15:24:46.394Z,1018.17
2022-09-21T15:34:46.358Z,1017.99
2022-09-21T15:44:46.343Z,1018.14
2022-09-21T15:54:47.381Z,1018.00
2022-09-21T16:04:46.419Z,1018.13
2022-09-21T16:14:46.697Z,1018.29
2022-09-21T16:24:46.487Z,1018.22
2022-09-21T16:34:46.634Z,1018.26
2022-09-21T16:44:46.476Z,1018.35
2022-09-21T16:54:47.428Z,1018.60
2022-09-21T17:04:46.488Z,1018.63
2022-09-21T17:14:47.363Z,1018.63
2022-09-21T17:24:50.711Z,1018.58
2022-09-21T17:34:46.491Z,1018.55
2022-09-21T17:44:46.514Z,1018.56
2022-09-21T17:54:46.651Z,1018.61
2022-09-21T18:04:46.549Z,1018.57
2022-09-21T18:14:46.548Z,1018.72
2022-09-21T18:24:46.618Z,1018.68
2022-09-21T18:34:46.536Z,1018.76
2022-09-21T18:44:47.682Z,1018.72
2022-09-21T18:54:46.978Z,1018.81
2022-09-21T19:04:46.951Z,1018.70
2022-09-21T19:14:47.175Z,1018.71
